sensor_id;sensor_type;location;lat;lon;timestamp;P1;durP1;ratioP1;P2;durP2;ratioP2
30998;SDS011;20549;50.042;8.968;2022-11-30T00:02:14;19.63;;;13.23;;
30998;SDS011;20549;50.042;8.968;2022-11-30T00:04:40;16.13;;;12.23;;
30998;SDS011;20549;50.042;8.968;2022-11-30T00:07:07;15.13;;;11.97;;
30998;SDS011;20549;50.042;8.968;2022-11-30T00:09:34;19.43;;;11.93;;
30998;SDS011;20549;50.042;8.968;2022-11-30T00:12:00;16.90;;;11.93;;
30998;SDS011;20549;50.042;8.968;2022-11-30T00:14:27;16.97;;;12.03;;
30998;SDS011;20549;50.042;8.968;2022-11-30T00:16:53;19.00;;;13.20;;
30998;SDS011;20549;50.042;8.968;2022-11-30T00:19:20;17.50;;;12.60;;
30998;SDS011;20549;50.042;8.968;2022-11-30T00:21:46;16.53;;;12.53;;
30998;SDS011;20549;50.042;8.968;2022-11-30T00:24:13;18.53;;;13.70;;
30998;SDS011;20549;50.042;8.968;2022-11-30T00:26:40;19.27;;;13.00;;
30998;SDS011;20549;50.042;8.968;2022-11-30T00:29:06;17.07;;;13.03;;
30998;SDS011;20549;50.042;8.968;2022-11-30T00:31:33;17.50;;;13.33;;
30998;SDS011;20549;50.042;8.968;2022-11-30T00:33:59;18.30;;;12.37;;
30998;SDS011;20549;50.042;8.968;2022-11-30T00:36:26;18.80;;;12.80;;
30998;SDS011;20549;50.042;8.968;2022-11-30T00:38:53;17.57;;;12.53;;
30998;SDS011;20549;50.042;8.968;2022-11-30T00:41:19;17.97;;;12.10;;
30998;SDS011;20549;50.042;8.968;2022-11-30T00:43:46;14.80;;;11.23;;
30998;SDS011;20549;50.042;8.968;2022-11-30T00:46:12;17.03;;;12.07;;
30998;SDS011;20549;50.042;8.968;2022-11-30T00:48:39;16.43;;;12.20;;
30998;SDS011;20549;50.042;8.968;2022-11-30T00:51:06;18.33;;;13.00;;
30998;SDS011;20549;50.042;8.968;2022-11-30T00:53:32;18.47;;;11.53;;
30998;SDS011;20549;50.042;8.968;2022-11-30T00:55:59;15.33;;;12.30;;
30998;SDS011;20549;50.042;8.968;2022-11-30T00:58:25;20.10;;;12.60;;
30998;SDS011;20549;50.042;8.968;2022-11-30T01:00:52;19.53;;;13.07;;
30998;SDS011;20549;50.042;8.968;2022-11-30T01:03:19;19.03;;;13.23;;
30998;SDS011;20549;50.042;8.968;2022-11-30T01:05:45;19.93;;;12.43;;
30998;SDS011;20549;50.042;8.968;2022-11-30T01:08:12;18.87;;;12.47;;
30998;SDS011;20549;50.042;8.968;2022-11-30T01:10:39;17.23;;;12.50;;
30998;SDS011;20549;50.042;8.968;2022-11-30T01:13:05;16.40;;;11.73;;
30998;SDS011;20549;50.042;8.968;2022-11-30T01:15:35;18.43;;;12.57;;
30998;SDS011;20549;50.042;8.968;2022-11-30T01:18:01;18.80;;;12.80;;
30998;SDS011;20549;50.042;8.968;2022-11-30T01:20:27;18.80;;;12.37;;
30998;SDS011;20549;50.042;8.968;2022-11-30T01:22:54;17.47;;;12.33;;
30998;SDS011;20549;50.042;8.968;2022-11-30T01:25:21;18.33;;;12.83;;
30998;SDS011;20549;50.042;8.968;2022-11-30T01:27:47;16.97;;;12.67;;
30998;SDS011;20549;50.042;8.968;2022-11-30T01:30:14;18.97;;;13.50;;
30998;SDS011;20549;50.042;8.968;2022-11-30T01:32:40;17.90;;;12.57;;
30998;SDS011;20549;50.042;8.968;2022-11-30T01:35:07;17.07;;;12.27;;
30998;SDS011;20549;50.042;8.968;2022-11-30T01:37:34;16.60;;;11.87;;
30998;SDS011;20549;50.042;8.968;2022-11-30T01:40:00;17.53;;;13.57;;
30998;SDS011;20549;50.042;8.968;2022-11-30T01:42:27;20.07;;;12.33;;
30998;SDS011;20549;50.042;8.968;2022-11-30T01:47:23;18.03;;;13.43;;
30998;SDS011;20549;50.042;8.968;2022-11-30T01:49:50;25.33;;;14.00;;
30998;SDS011;20549;50.042;8.968;2022-11-30T01:52:17;19.90;;;13.57;;
30998;SDS011;20549;50.042;8.968;2022-11-30T01:54:50;22.10;;;14.10;;
30998;SDS011;20549;50.042;8.968;2022-11-30T01:57:21;20.97;;;12.53;;
30998;SDS011;20549;50.042;8.968;2022-11-30T01:59:47;17.70;;;12.60;;
30998;SDS011;20549;50.042;8.968;2022-11-30T02:02:13;20.47;;;13.90;;
30998;SDS011;20549;50.042;8.968;2022-11-30T02:04:40;20.03;;;13.03;;
30998;SDS011;20549;50.042;8.968;2022-11-30T02:07:06;19.30;;;12.83;;
30998;SDS011;20549;50.042;8.968;2022-11-30T02:09:35;18.93;;;12.60;;
30998;SDS011;20549;50.042;8.968;2022-11-30T02:12:00;19.93;;;12.57;;
30998;SDS011;20549;50.042;8.968;2022-11-30T02:14:30;19.20;;;12.07;;
30998;SDS011;20549;50.042;8.968;2022-11-30T02:17:16;16.87;;;11.77;;
30998;SDS011;20549;50.042;8.968;2022-11-30T02:30:26;16.27;;;10.93;;
30998;SDS011;20549;50.042;8.968;2022-11-30T02:32:57;17.03;;;11.40;;
30998;SDS011;20549;50.042;8.968;2022-11-30T02:35:24;18.77;;;12.10;;
30998;SDS011;20549;50.042;8.968;2022-11-30T02:37:48;16.60;;;12.13;;
30998;SDS011;20549;50.042;8.968;2022-11-30T02:40:17;16.87;;;11.40;;
30998;SDS011;20549;50.042;8.968;2022-11-30T02:42:41;15.00;;;11.47;;
30998;SDS011;20549;50.042;8.968;2022-11-30T02:45:08;17.90;;;11.30;;
30998;SDS011;20549;50.042;8.968;2022-11-30T02:47:48;17.53;;;11.97;;
30998;SDS011;20549;50.042;8.968;2022-11-30T02:50:14;17.70;;;12.33;;
30998;SDS011;20549;50.042;8.968;2022-11-30T02:52:40;15.83;;;11.13;;
30998;SDS011;20549;50.042;8.968;2022-11-30T02:55:08;14.80;;;11.43;;
30998;SDS011;20549;50.042;8.968;2022-11-30T02:57:33;14.87;;;10.70;;
30998;SDS011;20549;50.042;8.968;2022-11-30T03:00:00;16.30;;;11.40;;
30998;SDS011;20549;50.042;8.968;2022-11-30T03:02:26;12.53;;;10.73;;
30998;SDS011;20549;50.042;8.968;2022-11-30T03:04:53;14.47;;;11.47;;
30998;SDS011;20549;50.042;8.968;2022-11-30T03:07:19;16.20;;;11.67;;
30998;SDS011;20549;50.042;8.968;2022-11-30T03:09:46;16.13;;;11.30;;
30998;SDS011;20549;50.042;8.968;2022-11-30T03:12:12;16.33;;;11.27;;
30998;SDS011;20549;50.042;8.968;2022-11-30T03:14:39;15.13;;;12.10;;
30998;SDS011;20549;50.042;8.968;2022-11-30T03:17:06;18.07;;;11.80;;
30998;SDS011;20549;50.042;8.968;2022-11-30T03:19:32;14.57;;;10.43;;
30998;SDS011;20549;50.042;8.968;2022-11-30T03:21:59;16.47;;;11.60;;
30998;SDS011;20549;50.042;8.968;2022-11-30T03:24:25;15.57;;;11.37;;
30998;SDS011;20549;50.042;8.968;2022-11-30T03:26:52;13.67;;;10.50;;
30998;SDS011;20549;50.042;8.968;2022-11-30T03:29:19;14.83;;;11.20;;
30998;SDS011;20549;50.042;8.968;2022-11-30T03:31:45;15.17;;;10.50;;
30998;SDS011;20549;50.042;8.968;2022-11-30T03:34:12;17.03;;;11.10;;
30998;SDS011;20549;50.042;8.968;2022-11-30T03:36:38;17.33;;;10.30;;
30998;SDS011;20549;50.042;8.968;2022-11-30T03:39:05;11.73;;;9.87;;
30998;SDS011;20549;50.042;8.968;2022-11-30T03:41:32;14.67;;;11.23;;
30998;SDS011;20549;50.042;8.968;2022-11-30T03:43:58;12.80;;;9.63;;
30998;SDS011;20549;50.042;8.968;2022-11-30T03:46:25;16.23;;;10.67;;
30998;SDS011;20549;50.042;8.968;2022-11-30T03:48:51;15.17;;;10.43;;
30998;SDS011;20549;50.042;8.968;2022-11-30T03:51:18;14.23;;;10.47;;
30998;SDS011;20549;50.042;8.968;2022-11-30T03:53:44;16.43;;;11.37;;
30998;SDS011;20549;50.042;8.968;2022-11-30T03:56:11;19.20;;;10.70;;
30998;SDS011;20549;50.042;8.968;2022-11-30T03:58:38;15.17;;;11.10;;
30998;SDS011;20549;50.042;8.968;2022-11-30T04:01:08;17.90;;;11.60;;
30998;SDS011;20549;50.042;8.968;2022-11-30T04:03:34;16.07;;;11.70;;
30998;SDS011;20549;50.042;8.968;2022-11-30T04:08:46;15.17;;;10.83;;
30998;SDS011;20549;50.042;8.968;2022-11-30T04:11:13;15.60;;;11.27;;
30998;SDS011;20549;50.042;8.968;2022-11-30T04:13:39;14.37;;;10.90;;
30998;SDS011;20549;50.042;8.968;2022-11-30T04:16:06;15.07;;;10.57;;
30998;SDS011;20549;50.042;8.968;2022-11-30T04:18:33;14.57;;;10.43;;
30998;SDS011;20549;50.042;8.968;2022-11-30T04:20:59;15.13;;;10.33;;
30998;SDS011;20549;50.042;8.968;2022-11-30T04:23:30;14.20;;;10.50;;
30998;SDS011;20549;50.042;8.968;2022-11-30T04:25:55;16.27;;;11.43;;
30998;SDS011;20549;50.042;8.968;2022-11-30T04:28:22;24.87;;;14.07;;
30998;SDS011;20549;50.042;8.968;2022-11-30T04:30:48;18.70;;;11.53;;
30998;SDS011;20549;50.042;8.968;2022-11-30T04:33:15;19.73;;;10.70;;
30998;SDS011;20549;50.042;8.968;2022-11-30T04:35:45;15.83;;;11.53;;
30998;SDS011;20549;50.042;8.968;2022-11-30T04:38:11;15.40;;;10.57;;
30998;SDS011;20549;50.042;8.968;2022-11-30T04:40:38;16.10;;;11.00;;
30998;SDS011;20549;50.042;8.968;2022-11-30T04:43:04;15.07;;;10.20;;
30998;SDS011;20549;50.042;8.968;2022-11-30T04:45:30;16.83;;;11.27;;
30998;SDS011;20549;50.042;8.968;2022-11-30T04:47:57;13.40;;;10.03;;
30998;SDS011;20549;50.042;8.968;2022-11-30T04:50:24;13.40;;;10.30;;
30998;SDS011;20549;50.042;8.968;2022-11-30T04:52:50;15.93;;;10.97;;
30998;SDS011;20549;50.042;8.968;2022-11-30T04:55:17;14.77;;;10.43;;
30998;SDS011;20549;50.042;8.968;2022-11-30T04:57:47;17.97;;;11.53;;
30998;SDS011;20549;50.042;8.968;2022-11-30T05:00:14;16.17;;;11.60;;
30998;SDS011;20549;50.042;8.968;2022-11-30T05:02:40;16.00;;;10.93;;
30998;SDS011;20549;50.042;8.968;2022-11-30T05:05:06;13.23;;;10.17;;
30998;SDS011;20549;50.042;8.968;2022-11-30T05:07:33;15.20;;;10.30;;
30998;SDS011;20549;50.042;8.968;2022-11-30T05:10:00;14.87;;;10.50;;
30998;SDS011;20549;50.042;8.968;2022-11-30T05:12:26;13.67;;;9.97;;
30998;SDS011;20549;50.042;8.968;2022-11-30T05:14:53;14.37;;;10.23;;
30998;SDS011;20549;50.042;8.968;2022-11-30T05:17:19;14.27;;;10.17;;
30998;SDS011;20549;50.042;8.968;2022-11-30T05:19:46;13.10;;;9.80;;
30998;SDS011;20549;50.042;8.968;2022-11-30T05:22:13;13.03;;;9.97;;
30998;SDS011;20549;50.042;8.968;2022-11-30T05:24:39;12.50;;;9.67;;
30998;SDS011;20549;50.042;8.968;2022-11-30T05:27:06;13.87;;;10.33;;
30998;SDS011;20549;50.042;8.968;2022-11-30T05:29:32;13.20;;;9.60;;
30998;SDS011;20549;50.042;8.968;2022-11-30T05:32:02;14.13;;;9.73;;
30998;SDS011;20549;50.042;8.968;2022-11-30T05:34:28;16.27;;;10.07;;
30998;SDS011;20549;50.042;8.968;2022-11-30T05:36:55;14.73;;;9.97;;
30998;SDS011;20549;50.042;8.968;2022-11-30T05:39:22;13.60;;;9.33;;
30998;SDS011;20549;50.042;8.968;2022-11-30T05:41:48;11.73;;;8.47;;
30998;SDS011;20549;50.042;8.968;2022-11-30T05:44:15;13.07;;;9.50;;
30998;SDS011;20549;50.042;8.968;2022-11-30T05:46:41;13.20;;;9.03;;
30998;SDS011;20549;50.042;8.968;2022-11-30T05:49:08;12.60;;;9.67;;
30998;SDS011;20549;50.042;8.968;2022-11-30T05:51:35;11.50;;;8.07;;
30998;SDS011;20549;50.042;8.968;2022-11-30T05:54:01;11.93;;;8.57;;
30998;SDS011;20549;50.042;8.968;2022-11-30T05:56:28;12.43;;;8.67;;
30998;SDS011;20549;50.042;8.968;2022-11-30T05:58:54;11.07;;;8.30;;
30998;SDS011;20549;50.042;8.968;2022-11-30T06:01:24;11.80;;;8.50;;
30998;SDS011;20549;50.042;8.968;2022-11-30T06:03:47;9.00;;;7.43;;
30998;SDS011;20549;50.042;8.968;2022-11-30T06:06:14;9.10;;;7.87;;
30998;SDS011;20549;50.042;8.968;2022-11-30T06:08:41;9.37;;;7.50;;
30998;SDS011;20549;50.042;8.968;2022-11-30T06:11:07;9.30;;;7.63;;
30998;SDS011;20549;50.042;8.968;2022-11-30T06:13:34;9.07;;;7.50;;
30998;SDS011;20549;50.042;8.968;2022-11-30T06:16:01;9.43;;;7.33;;
30998;SDS011;20549;50.042;8.968;2022-11-30T06:18:27;10.13;;;7.60;;
30998;SDS011;20549;50.042;8.968;2022-11-30T06:20:54;9.03;;;7.23;;
30998;SDS011;20549;50.042;8.968;2022-11-30T06:23:20;7.77;;;6.97;;
30998;SDS011;20549;50.042;8.968;2022-11-30T06:25:47;8.00;;;7.20;;
30998;SDS011;20549;50.042;8.968;2022-11-30T06:28:13;7.53;;;6.70;;
30998;SDS011;20549;50.042;8.968;2022-11-30T06:30:40;8.77;;;7.20;;
30998;SDS011;20549;50.042;8.968;2022-11-30T06:33:07;8.27;;;6.83;;
30998;SDS011;20549;50.042;8.968;2022-11-30T06:35:33;7.47;;;6.50;;
30998;SDS011;20549;50.042;8.968;2022-11-30T06:38:00;8.53;;;7.07;;
30998;SDS011;20549;50.042;8.968;2022-11-30T06:40:26;6.97;;;6.10;;
30998;SDS011;20549;50.042;8.968;2022-11-30T06:42:53;7.27;;;6.40;;
30998;SDS011;20549;50.042;8.968;2022-11-30T06:45:19;7.03;;;6.33;;
30998;SDS011;20549;50.042;8.968;2022-11-30T06:47:46;7.37;;;6.43;;
30998;SDS011;20549;50.042;8.968;2022-11-30T06:50:13;7.33;;;6.27;;
30998;SDS011;20549;50.042;8.968;2022-11-30T06:52:39;6.87;;;6.17;;
30998;SDS011;20549;50.042;8.968;2022-11-30T06:55:06;7.40;;;6.70;;
30998;SDS011;20549;50.042;8.968;2022-11-30T06:57:32;10.60;;;6.97;;
30998;SDS011;20549;50.042;8.968;2022-11-30T06:59:59;9.30;;;7.47;;
30998;SDS011;20549;50.042;8.968;2022-11-30T07:02:26;7.50;;;6.80;;
30998;SDS011;20549;50.042;8.968;2022-11-30T07:04:52;9.20;;;7.33;;
30998;SDS011;20549;50.042;8.968;2022-11-30T07:07:19;9.83;;;7.30;;
30998;SDS011;20549;50.042;8.968;2022-11-30T07:09:45;8.10;;;6.30;;
30998;SDS011;20549;50.042;8.968;2022-11-30T07:12:12;7.57;;;6.57;;
30998;SDS011;20549;50.042;8.968;2022-11-30T07:14:38;7.77;;;7.03;;
30998;SDS011;20549;50.042;8.968;2022-11-30T07:17:05;7.87;;;6.57;;
30998;SDS011;20549;50.042;8.968;2022-11-30T07:19:32;7.57;;;6.23;;
30998;SDS011;20549;50.042;8.968;2022-11-30T07:22:01;8.53;;;7.07;;
30998;SDS011;20549;50.042;8.968;2022-11-30T07:24:28;8.47;;;7.50;;
30998;SDS011;20549;50.042;8.968;2022-11-30T07:27:12;8.03;;;7.17;;
30998;SDS011;20549;50.042;8.968;2022-11-30T07:29:39;9.37;;;7.30;;
30998;SDS011;20549;50.042;8.968;2022-11-30T07:32:05;8.80;;;7.50;;
30998;SDS011;20549;50.042;8.968;2022-11-30T07:34:32;8.73;;;7.83;;
30998;SDS011;20549;50.042;8.968;2022-11-30T07:36:58;8.47;;;7.67;;
30998;SDS011;20549;50.042;8.968;2022-11-30T07:39:25;9.17;;;7.73;;
30998;SDS011;20549;50.042;8.968;2022-11-30T07:41:52;8.27;;;7.47;;
30998;SDS011;20549;50.042;8.968;2022-11-30T07:44:18;8.70;;;7.90;;
30998;SDS011;20549;50.042;8.968;2022-11-30T07:46:45;8.93;;;7.90;;
30998;SDS011;20549;50.042;8.968;2022-11-30T07:49:11;8.90;;;7.97;;
30998;SDS011;20549;50.042;8.968;2022-11-30T07:51:38;10.20;;;8.07;;
30998;SDS011;20549;50.042;8.968;2022-11-30T07:54:05;9.97;;;8.33;;
30998;SDS011;20549;50.042;8.968;2022-11-30T07:56:31;9.10;;;7.40;;
30998;SDS011;20549;50.042;8.968;2022-11-30T07:58:58;8.60;;;7.70;;
30998;SDS011;20549;50.042;8.968;2022-11-30T08:01:25;8.23;;;7.43;;
30998;SDS011;20549;50.042;8.968;2022-11-30T08:03:51;7.57;;;6.87;;
30998;SDS011;20549;50.042;8.968;2022-11-30T08:06:18;9.00;;;7.20;;
30998;SDS011;20549;50.042;8.968;2022-11-30T08:08:48;7.30;;;6.60;;
30998;SDS011;20549;50.042;8.968;2022-11-30T08:11:14;9.43;;;7.37;;
30998;SDS011;20549;50.042;8.968;2022-11-30T08:13:40;7.73;;;7.03;;
30998;SDS011;20549;50.042;8.968;2022-11-30T08:16:08;9.60;;;7.67;;
30998;SDS011;20549;50.042;8.968;2022-11-30T08:18:33;9.13;;;7.83;;
30998;SDS011;20549;50.042;8.968;2022-11-30T08:21:01;8.13;;;7.33;;
30998;SDS011;20549;50.042;8.968;2022-11-30T08:23:30;8.90;;;7.83;;
30998;SDS011;20549;50.042;8.968;2022-11-30T08:26:00;10.07;;;8.03;;
30998;SDS011;20549;50.042;8.968;2022-11-30T08:28:22;9.20;;;8.00;;
30998;SDS011;20549;50.042;8.968;2022-11-30T08:30:49;10.20;;;9.10;;
30998;SDS011;20549;50.042;8.968;2022-11-30T08:33:16;8.77;;;7.97;;
30998;SDS011;20549;50.042;8.968;2022-11-30T08:35:42;9.67;;;8.77;;
30998;SDS011;20549;50.042;8.968;2022-11-30T08:38:09;9.93;;;9.00;;
30998;SDS011;20549;50.042;8.968;2022-11-30T08:40:35;10.13;;;8.70;;
30998;SDS011;20549;50.042;8.968;2022-11-30T08:43:02;12.00;;;9.13;;
30998;SDS011;20549;50.042;8.968;2022-11-30T08:45:29;13.37;;;10.40;;
30998;SDS011;20549;50.042;8.968;2022-11-30T08:47:55;12.47;;;10.30;;
30998;SDS011;20549;50.042;8.968;2022-11-30T08:50:22;12.87;;;9.43;;
30998;SDS011;20549;50.042;8.968;2022-11-30T08:52:48;11.77;;;9.00;;
30998;SDS011;20549;50.042;8.968;2022-11-30T08:55:15;11.17;;;9.53;;
30998;SDS011;20549;50.042;8.968;2022-11-30T08:57:42;11.63;;;9.00;;
30998;SDS011;20549;50.042;8.968;2022-11-30T09:00:08;13.20;;;10.67;;
30998;SDS011;20549;50.042;8.968;2022-11-30T09:02:35;12.83;;;10.73;;
30998;SDS011;20549;50.042;8.968;2022-11-30T09:05:02;12.80;;;9.07;;
30998;SDS011;20549;50.042;8.968;2022-11-30T09:07:28;12.30;;;8.20;;
30998;SDS011;20549;50.042;8.968;2022-11-30T09:09:55;11.97;;;8.63;;
30998;SDS011;20549;50.042;8.968;2022-11-30T09:12:21;8.90;;;7.67;;
30998;SDS011;20549;50.042;8.968;2022-11-30T09:14:48;8.77;;;7.50;;
30998;SDS011;20549;50.042;8.968;2022-11-30T09:17:14;8.00;;;6.90;;
30998;SDS011;20549;50.042;8.968;2022-11-30T09:19:41;9.63;;;7.83;;
30998;SDS011;20549;50.042;8.968;2022-11-30T09:22:08;8.73;;;7.27;;
30998;SDS011;20549;50.042;8.968;2022-11-30T09:24:34;10.20;;;7.90;;
30998;SDS011;20549;50.042;8.968;2022-11-30T09:27:01;7.90;;;7.20;;
30998;SDS011;20549;50.042;8.968;2022-11-30T09:29:27;11.87;;;8.00;;
30998;SDS011;20549;50.042;8.968;2022-11-30T09:31:54;9.57;;;7.17;;
30998;SDS011;20549;50.042;8.968;2022-11-30T09:34:21;8.47;;;7.67;;
30998;SDS011;20549;50.042;8.968;2022-11-30T09:36:47;8.67;;;7.10;;
30998;SDS011;20549;50.042;8.968;2022-11-30T09:39:14;8.33;;;6.90;;
30998;SDS011;20549;50.042;8.968;2022-11-30T09:46:57;7.90;;;7.10;;
30998;SDS011;20549;50.042;8.968;2022-11-30T09:49:21;8.27;;;7.10;;
30998;SDS011;20549;50.042;8.968;2022-11-30T09:51:48;7.60;;;6.90;;
30998;SDS011;20549;50.042;8.968;2022-11-30T09:54:15;9.10;;;7.70;;
30998;SDS011;20549;50.042;8.968;2022-11-30T09:56:43;8.60;;;7.80;;
30998;SDS011;20549;50.042;8.968;2022-11-30T09:59:23;9.30;;;7.80;;
30998;SDS011;20549;50.042;8.968;2022-11-30T10:01:48;8.70;;;7.90;;
30998;SDS011;20549;50.042;8.968;2022-11-30T10:04:25;7.90;;;7.20;;
30998;SDS011;20549;50.042;8.968;2022-11-30T10:12:02;8.37;;;7.50;;
30998;SDS011;20549;50.042;8.968;2022-11-30T10:14:37;8.40;;;7.60;;
30998;SDS011;20549;50.042;8.968;2022-11-30T10:17:07;9.83;;;7.67;;
30998;SDS011;20549;50.042;8.968;2022-11-30T10:22:24;8.77;;;7.60;;
30998;SDS011;20549;50.042;8.968;2022-11-30T10:27:48;8.27;;;7.47;;
30998;SDS011;20549;50.042;8.968;2022-11-30T10:30:21;8.20;;;7.30;;
30998;SDS011;20549;50.042;8.968;2022-11-30T10:32:51;7.33;;;6.63;;
30998;SDS011;20549;50.042;8.968;2022-11-30T10:35:20;10.18;;;9.03;;
30998;SDS011;20549;50.042;8.968;2022-11-30T10:37:42;8.17;;;7.37;;
30998;SDS011;20549;50.042;8.968;2022-11-30T10:40:12;7.72;;;7.03;;
30998;SDS011;20549;50.042;8.968;2022-11-30T10:45:11;8.30;;;7.50;;
30998;SDS011;20549;50.042;8.968;2022-11-30T10:47:34;8.13;;;7.33;;
30998;SDS011;20549;50.042;8.968;2022-11-30T10:50:01;8.70;;;7.80;;
30998;SDS011;20549;50.042;8.968;2022-11-30T10:52:28;8.40;;;7.60;;
30998;SDS011;20549;50.042;8.968;2022-11-30T10:54:54;9.10;;;8.20;;
30998;SDS011;20549;50.042;8.968;2022-11-30T10:57:21;9.00;;;8.20;;
30998;SDS011;20549;50.042;8.968;2022-11-30T10:59:53;9.23;;;8.23;;
30998;SDS011;20549;50.042;8.968;2022-11-30T11:05:25;8.47;;;7.60;;
30998;SDS011;20549;50.042;8.968;2022-11-30T11:10:24;8.70;;;7.90;;
30998;SDS011;20549;50.042;8.968;2022-11-30T11:12:50;8.88;;;7.25;;
30998;SDS011;20549;50.042;8.968;2022-11-30T11:17:44;8.13;;;7.40;;
30998;SDS011;20549;50.042;8.968;2022-11-30T11:20:58;7.13;;;6.43;;
30998;SDS011;20549;50.042;8.968;2022-11-30T11:22:52;7.42;;;6.72;;
30998;SDS011;20549;50.042;8.968;2022-11-30T11:25:26;7.40;;;6.70;;
30998;SDS011;20549;50.042;8.968;2022-11-30T11:28:02;7.70;;;6.92;;
30998;SDS011;20549;50.042;8.968;2022-11-30T11:30:28;7.55;;;6.83;;
30998;SDS011;20549;50.042;8.968;2022-11-30T11:33:00;7.40;;;6.62;;
30998;SDS011;20549;50.042;8.968;2022-11-30T11:35:33;6.87;;;6.27;;
30998;SDS011;20549;50.042;8.968;2022-11-30T11:38:01;7.10;;;6.33;;
30998;SDS011;20549;50.042;8.968;2022-11-30T11:40:27;7.10;;;6.43;;
30998;SDS011;20549;50.042;8.968;2022-11-30T11:42:54;6.10;;;5.50;;
30998;SDS011;20549;50.042;8.968;2022-11-30T11:45:25;6.22;;;5.72;;
30998;SDS011;20549;50.042;8.968;2022-11-30T11:47:56;6.87;;;6.27;;
30998;SDS011;20549;50.042;8.968;2022-11-30T11:50:27;8.53;;;6.37;;
30998;SDS011;20549;50.042;8.968;2022-11-30T11:55:53;7.60;;;6.75;;
30998;SDS011;20549;50.042;8.968;2022-11-30T11:58:40;7.13;;;6.43;;
30998;SDS011;20549;50.042;8.968;2022-11-30T12:01:07;7.00;;;6.30;;
30998;SDS011;20549;50.042;8.968;2022-11-30T12:03:40;6.85;;;6.25;;
30998;SDS011;20549;50.042;8.968;2022-11-30T12:06:02;6.10;;;5.50;;
30998;SDS011;20549;50.042;8.968;2022-11-30T12:08:37;7.15;;;6.45;;
30998;SDS011;20549;50.042;8.968;2022-11-30T12:11:15;6.97;;;6.03;;
30998;SDS011;20549;50.042;8.968;2022-11-30T12:13:41;6.30;;;5.70;;
30998;SDS011;20549;50.042;8.968;2022-11-30T12:16:20;6.37;;;5.78;;
30998;SDS011;20549;50.042;8.968;2022-11-30T12:37:58;6.60;;;5.67;;
30998;SDS011;20549;50.042;8.968;2022-11-30T12:40:30;6.43;;;5.80;;
30998;SDS011;20549;50.042;8.968;2022-11-30T12:45:57;6.27;;;5.60;;
30998;SDS011;20549;50.042;8.968;2022-11-30T12:51:11;6.50;;;5.90;;
30998;SDS011;20549;50.042;8.968;2022-11-30T12:56:41;6.17;;;5.63;;
30998;SDS011;20549;50.042;8.968;2022-11-30T13:04:58;5.33;;;4.90;;
30998;SDS011;20549;50.042;8.968;2022-11-30T13:07:08;6.28;;;5.67;;
30998;SDS011;20549;50.042;8.968;2022-11-30T13:09:36;6.25;;;5.65;;
30998;SDS011;20549;50.042;8.968;2022-11-30T13:12:27;6.77;;;5.23;;
30998;SDS011;20549;50.042;8.968;2022-11-30T13:14:54;5.83;;;5.33;;
30998;SDS011;20549;50.042;8.968;2022-11-30T13:17:19;6.40;;;5.80;;
30998;SDS011;20549;50.042;8.968;2022-11-30T13:19:51;6.70;;;6.03;;
30998;SDS011;20549;50.042;8.968;2022-11-30T13:22:23;8.50;;;6.03;;
30998;SDS011;20549;50.042;8.968;2022-11-30T13:25:15;6.07;;;5.47;;
30998;SDS011;20549;50.042;8.968;2022-11-30T13:27:39;6.10;;;5.50;;
30998;SDS011;20549;50.042;8.968;2022-11-30T13:30:05;6.03;;;5.53;;
30998;SDS011;20549;50.042;8.968;2022-11-30T13:32:32;5.55;;;5.10;;
30998;SDS011;20549;50.042;8.968;2022-11-30T13:37:36;5.97;;;5.47;;
30998;SDS011;20549;50.042;8.968;2022-11-30T13:40:02;5.87;;;5.27;;
30998;SDS011;20549;50.042;8.968;2022-11-30T13:42:33;5.70;;;5.03;;
30998;SDS011;20549;50.042;8.968;2022-11-30T13:47:37;7.03;;;6.33;;
30998;SDS011;20549;50.042;8.968;2022-11-30T13:58:14;5.20;;;4.70;;
30998;SDS011;20549;50.042;8.968;2022-11-30T14:05:46;5.63;;;5.10;;
30998;SDS011;20549;50.042;8.968;2022-11-30T14:10:46;4.40;;;4.00;;
30998;SDS011;20549;50.042;8.968;2022-11-30T14:20:35;5.60;;;5.10;;
30998;SDS011;20549;50.042;8.968;2022-11-30T14:23:07;4.90;;;4.50;;
30998;SDS011;20549;50.042;8.968;2022-11-30T14:25:33;4.60;;;4.13;;
30998;SDS011;20549;50.042;8.968;2022-11-30T14:27:59;4.47;;;4.07;;
30998;SDS011;20549;50.042;8.968;2022-11-30T14:30:26;5.10;;;4.60;;
30998;SDS011;20549;50.042;8.968;2022-11-30T14:33:00;4.00;;;3.70;;
30998;SDS011;20549;50.042;8.968;2022-11-30T14:35:22;5.47;;;3.87;;
30998;SDS011;20549;50.042;8.968;2022-11-30T14:37:52;4.23;;;3.83;;
30998;SDS011;20549;50.042;8.968;2022-11-30T14:40:18;3.97;;;3.67;;
30998;SDS011;20549;50.042;8.968;2022-11-30T14:42:51;4.27;;;3.87;;
30998;SDS011;20549;50.042;8.968;2022-11-30T14:45:18;4.00;;;3.70;;
30998;SDS011;20549;50.042;8.968;2022-11-30T14:47:43;4.20;;;3.77;;
30998;SDS011;20549;50.042;8.968;2022-11-30T14:50:10;7.23;;;3.93;;
30998;SDS011;20549;50.042;8.968;2022-11-30T14:52:40;4.23;;;3.80;;
30998;SDS011;20549;50.042;8.968;2022-11-30T14:55:28;5.03;;;3.50;;
30998;SDS011;20549;50.042;8.968;2022-11-30T14:58:11;4.30;;;3.90;;
30998;SDS011;20549;50.042;8.968;2022-11-30T15:00:39;4.10;;;3.70;;
30998;SDS011;20549;50.042;8.968;2022-11-30T15:03:05;4.20;;;3.80;;
30998;SDS011;20549;50.042;8.968;2022-11-30T15:05:31;3.90;;;3.60;;
30998;SDS011;20549;50.042;8.968;2022-11-30T15:07:58;4.00;;;3.60;;
30998;SDS011;20549;50.042;8.968;2022-11-30T15:10:28;4.93;;;4.37;;
30998;SDS011;20549;50.042;8.968;2022-11-30T15:12:54;4.33;;;3.93;;
30998;SDS011;20549;50.042;8.968;2022-11-30T15:15:21;5.13;;;4.57;;
30998;SDS011;20549;50.042;8.968;2022-11-30T15:17:48;5.17;;;4.67;;
30998;SDS011;20549;50.042;8.968;2022-11-30T15:20:19;5.40;;;4.87;;
30998;SDS011;20549;50.042;8.968;2022-11-30T15:22:40;6.17;;;4.90;;
30998;SDS011;20549;50.042;8.968;2022-11-30T15:25:10;5.80;;;5.20;;
30998;SDS011;20549;50.042;8.968;2022-11-30T15:27:33;6.20;;;5.40;;
30998;SDS011;20549;50.042;8.968;2022-11-30T15:30:00;5.63;;;5.13;;
30998;SDS011;20549;50.042;8.968;2022-11-30T15:32:27;5.83;;;5.23;;
30998;SDS011;20549;50.042;8.968;2022-11-30T15:34:54;7.30;;;6.03;;
30998;SDS011;20549;50.042;8.968;2022-11-30T15:37:20;7.20;;;5.57;;
30998;SDS011;20549;50.042;8.968;2022-11-30T15:39:47;6.83;;;6.13;;
30998;SDS011;20549;50.042;8.968;2022-11-30T15:42:19;9.53;;;6.53;;
30998;SDS011;20549;50.042;8.968;2022-11-30T15:44:45;7.03;;;6.13;;
30998;SDS011;20549;50.042;8.968;2022-11-30T15:47:25;8.17;;;6.53;;
30998;SDS011;20549;50.042;8.968;2022-11-30T15:50:18;8.00;;;7.10;;
30998;SDS011;20549;50.042;8.968;2022-11-30T15:52:29;9.17;;;6.97;;
30998;SDS011;20549;50.042;8.968;2022-11-30T15:54:56;8.53;;;7.40;;
30998;SDS011;20549;50.042;8.968;2022-11-30T15:57:23;9.63;;;7.80;;
30998;SDS011;20549;50.042;8.968;2022-11-30T16:00:05;8.73;;;7.63;;
30998;SDS011;20549;50.042;8.968;2022-11-30T16:02:34;9.90;;;8.03;;
30998;SDS011;20549;50.042;8.968;2022-11-30T16:07:30;10.33;;;7.80;;
30998;SDS011;20549;50.042;8.968;2022-11-30T16:10:09;8.83;;;7.90;;
30998;SDS011;20549;50.042;8.968;2022-11-30T16:12:41;10.13;;;7.47;;
30998;SDS011;20549;50.042;8.968;2022-11-30T16:15:18;10.83;;;7.93;;
30998;SDS011;20549;50.042;8.968;2022-11-30T16:17:43;9.73;;;7.80;;
30998;SDS011;20549;50.042;8.968;2022-11-30T16:20:12;10.60;;;8.10;;
30998;SDS011;20549;50.042;8.968;2022-11-30T16:22:36;9.00;;;7.47;;
30998;SDS011;20549;50.042;8.968;2022-11-30T16:25:02;9.87;;;7.97;;
30998;SDS011;20549;50.042;8.968;2022-11-30T16:27:29;8.97;;;7.90;;
30998;SDS011;20549;50.042;8.968;2022-11-30T16:29:55;9.23;;;7.97;;